createdAt,value
2023-03-19T00:01:49.247Z,99740.03
2023-03-19T00:04:17.261Z,99745.75
2023-03-19T00:06:44.156Z,99739.94
2023-03-19T00:09:11.492Z,99732.53
2023-03-19T00:11:38.215Z,99739.75
2023-03-19T00:14:05.992Z,99741.03
2023-03-19T00:16:33.127Z,99751.53
2023-03-19T00:18:59.983Z,99746.41
2023-03-19T00:21:27.167Z,99750.19
2023-03-19T00:23:54.398Z,99748.09
2023-03-19T00:26:20.924Z,99739.66
2023-03-19T00:28:47.368Z,99749.38
2023-03-19T00:31:16.584Z,99744.63
2023-03-19T00:33:43.228Z,99741.53
2023-03-19T00:36:10.948Z,99737.56
2023-03-19T00:38:37.442Z,99744.34
2023-03-19T00:41:05.249Z,99733.72
2023-03-19T00:43:32.201Z,99726.63
2023-03-19T00:45:58.944Z,99724.72
2023-03-19T00:48:25.593Z,99723.91
2023-03-19T00:50:52.101Z,99726.69
2023-03-19T00:53:18.926Z,99730.72
2023-03-19T00:55:46.215Z,99743.31
2023-03-19T00:58:13.284Z,99735.47
2023-03-19T01:00:40.013Z,99739.22
2023-03-19T01:03:06.798Z,99741.88
2023-03-19T01:05:36.283Z,99737.41
2023-03-19T01:08:03.124Z,99740.63
2023-03-19T01:10:29.710Z,99738.88
2023-03-19T01:12:56.937Z,99741.44
2023-03-19T01:15:23.483Z,99737.88
2023-03-19T01:17:50.082Z,99741.75
2023-03-19T01:20:18.871Z,99732.19
2023-03-19T01:22:45.845Z,99730.91
2023-03-19T01:25:13.835Z,99725.97
2023-03-19T01:27:40.391Z,99727.34
2023-03-19T01:30:07.709Z,99732.94
2023-03-19T01:32:34.189Z,99728.19
2023-03-19T01:35:01.228Z,99714.94
2023-03-19T01:37:28.247Z,99728.00
2023-03-19T01:39:54.862Z,99726.78
2023-03-19T01:42:21.525Z,99724.97
2023-03-19T01:44:48.070Z,99722.06
2023-03-19T01:47:18.349Z,99717.19
2023-03-19T01:49:47.918Z,99718.19
2023-03-19T01:52:15.168Z,99712.19
2023-03-19T01:54:41.777Z,99707.00
2023-03-19T01:57:11.796Z,99711.41
2023-03-19T01:59:42.184Z,99718.44
2023-03-19T02:02:30.507Z,99725.44
2023-03-19T02:05:01.645Z,99730.44
2023-03-19T02:07:33.184Z,99734.50
2023-03-19T02:10:01.422Z,99727.34
2023-03-19T02:12:28.113Z,99730.16
2023-03-19T02:14:55.073Z,99722.53
2023-03-19T02:17:22.131Z,99722.81
2023-03-19T02:20:02.410Z,99720.91
2023-03-19T02:22:30.409Z,99717.66
2023-03-19T02:25:02.214Z,99715.84
2023-03-19T02:27:29.178Z,99721.72
2023-03-19T02:29:56.078Z,99719.75
2023-03-19T02:32:22.959Z,99719.09
2023-03-19T02:34:49.837Z,99715.69
2023-03-19T02:37:26.482Z,99719.56
2023-03-19T02:39:59.555Z,99717.94
2023-03-19T02:42:28.485Z,99711.91
2023-03-19T02:44:55.049Z,99719.72
2023-03-19T02:47:21.649Z,99722.53
2023-03-19T02:49:48.455Z,99727.91
2023-03-19T02:52:15.107Z,99724.34
2023-03-19T02:54:41.894Z,99719.31
2023-03-19T02:57:08.648Z,99723.88
2023-03-19T02:59:35.772Z,99727.59
2023-03-19T03:02:02.300Z,99723.41
2023-03-19T03:04:29.218Z,99715.94
2023-03-19T03:06:55.723Z,99721.81
2023-03-19T03:09:22.670Z,99726.34
2023-03-19T03:11:49.445Z,99743.44
2023-03-19T03:14:15.931Z,99752.88
2023-03-19T03:16:42.552Z,99756.81
2023-03-19T03:19:09.277Z,99753.41
2023-03-19T03:21:36.223Z,99751.41
2023-03-19T03:24:02.978Z,99753.13
2023-03-19T03:26:29.938Z,99753.41
2023-03-19T03:28:56.454Z,99750.69
2023-03-19T03:31:23.316Z,99765.72
2023-03-19T03:33:50.331Z,99758.66
2023-03-19T03:36:17.544Z,99753.47
2023-03-19T03:38:45.203Z,99753.84
2023-03-19T03:41:11.677Z,99747.63
2023-03-19T03:43:38.196Z,99755.31
2023-03-19T03:46:05.147Z,99742.50
2023-03-19T03:48:31.694Z,99749.00
2023-03-19T03:50:58.277Z,99749.16
2023-03-19T03:53:24.958Z,99760.38
2023-03-19T03:55:51.601Z,99749.66
2023-03-19T03:58:18.148Z,99747.84
2023-03-19T04:00:44.602Z,99754.94
2023-03-19T04:03:11.105Z,99751.78
2023-03-19T04:05:38.427Z,99758.84
2023-03-19T04:08:05.353Z,99755.75
2023-03-19T04:10:32.457Z,99753.56
2023-03-19T04:12:59.367Z,99751.69
2023-03-19T04:15:25.832Z,99746.09
2023-03-19T04:17:52.334Z,99746.91
2023-03-19T04:20:19.208Z,99746.00
2023-03-19T04:22:45.769Z,99738.97
2023-03-19T04:25:12.284Z,99741.31
2023-03-19T04:27:38.708Z,99741.75
2023-03-19T04:30:05.936Z,99744.03
2023-03-19T04:32:33.632Z,99742.41
2023-03-19T04:35:00.369Z,99739.97
2023-03-19T04:37:27.121Z,99743.91
2023-03-19T04:39:54.491Z,99738.44
2023-03-19T04:42:21.532Z,99737.97
2023-03-19T04:44:48.657Z,99749.31
2023-03-19T04:47:15.370Z,99747.56
2023-03-19T04:49:42.368Z,99740.44
2023-03-19T04:52:09.413Z,99745.94
2023-03-19T04:54:35.803Z,99748.03
2023-03-19T04:57:02.358Z,99743.28
2023-03-19T04:59:28.865Z,99748.91
2023-03-19T05:01:55.656Z,99746.56
2023-03-19T05:04:23.985Z,99756.47
2023-03-19T05:06:50.512Z,99748.81
2023-03-19T05:09:17.140Z,99750.56
2023-03-19T05:11:43.804Z,99751.22
2023-03-19T05:14:10.267Z,99750.16
2023-03-19T05:16:37.158Z,99752.81
2023-03-19T05:19:03.671Z,99749.06
2023-03-19T05:21:30.294Z,99759.50
2023-03-19T05:23:57.221Z,99756.13
2023-03-19T05:26:23.998Z,99749.91
2023-03-19T05:28:50.626Z,99760.50
2023-03-19T05:31:17.358Z,99760.84
2023-03-19T05:33:43.949Z,99755.31
2023-03-19T05:36:10.623Z,99759.34
2023-03-19T05:38:37.003Z,99750.25
2023-03-19T05:41:07.394Z,99758.56
2023-03-19T05:43:34.131Z,99750.91
2023-03-19T05:46:00.700Z,99763.06
2023-03-19T05:48:27.395Z,99762.56
2023-03-19T05:50:54.414Z,99768.63
2023-03-19T05:53:21.537Z,99770.25
2023-03-19T05:55:47.965Z,99768.75
2023-03-19T05:58:15.393Z,99769.38
2023-03-19T06:00:42.264Z,99774.84
2023-03-19T06:03:08.843Z,99774.69
2023-03-19T06:05:36.242Z,99775.19
2023-03-19T06:08:02.670Z,99772.22
2023-03-19T06:10:29.096Z,99777.19
2023-03-19T06:12:55.981Z,99780.59
2023-03-19T06:15:22.412Z,99787.50
2023-03-19T06:17:48.915Z,99785.03
2023-03-19T06:20:15.426Z,99781.34
2023-03-19T06:22:43.613Z,99778.81
2023-03-19T06:25:10.310Z,99768.88
2023-03-19T06:27:36.932Z,99772.06
2023-03-19T06:30:03.776Z,99765.19
2023-03-19T06:32:30.390Z,99772.72
2023-03-19T06:34:57.128Z,99767.47
2023-03-19T06:37:23.858Z,99768.94
2023-03-19T06:39:51.078Z,99770.91
2023-03-19T06:42:17.586Z,99772.94
2023-03-19T06:44:44.148Z,99776.34
2023-03-19T06:47:10.953Z,99770.69
2023-03-19T06:49:37.394Z,99771.38
2023-03-19T06:52:04.456Z,99768.38
2023-03-19T06:54:31.278Z,99771.28
2023-03-19T06:56:58.088Z,99779.88
2023-03-19T06:59:25.291Z,99779.25
2023-03-19T07:01:52.593Z,99787.38
2023-03-19T07:04:19.489Z,99782.66
2023-03-19T07:06:46.437Z,99791.91
2023-03-19T07:09:13.139Z,99790.47
2023-03-19T07:11:39.825Z,99794.94
2023-03-19T07:14:06.295Z,99798.13
2023-03-19T07:16:33.210Z,99796.81
2023-03-19T07:18:59.745Z,99809.03
2023-03-19T07:21:26.333Z,99812.75
2023-03-19T07:23:52.938Z,99811.66
2023-03-19T07:26:19.916Z,99805.63
2023-03-19T07:28:46.714Z,99811.47
2023-03-19T07:31:13.395Z,99821.53
2023-03-19T07:33:40.080Z,99809.84
2023-03-19T07:36:07.251Z,99815.47
2023-03-19T07:38:33.788Z,99831.78
2023-03-19T07:41:02.790Z,99817.25
2023-03-19T07:43:30.209Z,99819.84
2023-03-19T07:45:58.601Z,99821.94
2023-03-19T07:48:25.269Z,99817.25
2023-03-19T07:50:51.954Z,99811.75
2023-03-19T07:53:18.763Z,99813.22
2023-03-19T07:55:45.633Z,99812.03
2023-03-19T07:58:13.422Z,99806.03
2023-03-19T08:00:39.987Z,99799.97
2023-03-19T08:03:06.619Z,99803.38
2023-03-19T08:05:33.577Z,99802.63
2023-03-19T08:07:59.958Z,99799.97
2023-03-19T08:10:27.266Z,99798.72
2023-03-19T08:12:54.221Z,99800.13
2023-03-19T08:15:21.374Z,99806.56
2023-03-19T08:17:49.094Z,99812.28
2023-03-19T08:20:18.933Z,99806.88
2023-03-19T08:22:49.246Z,99804.16
2023-03-19T08:25:15.792Z,99808.84
2023-03-19T08:27:42.800Z,99809.88
2023-03-19T08:30:11.790Z,99813.59
2023-03-19T08:32:38.345Z,99802.28
2023-03-19T08:35:06.250Z,99799.06
2023-03-19T08:37:32.821Z,99806.47
2023-03-19T08:39:59.797Z,99813.91
2023-03-19T08:42:26.313Z,99809.22
2023-03-19T08:44:52.734Z,99818.88
2023-03-19T08:47:24.241Z,99820.84
2023-03-19T08:49:51.861Z,99822.31
2023-03-19T08:52:19.384Z,99820.13
2023-03-19T08:54:45.987Z,99815.28
2023-03-19T08:57:12.605Z,99827.28
2023-03-19T08:59:39.092Z,99823.66
2023-03-19T09:02:05.769Z,99827.81
2023-03-19T09:04:36.718Z,99820.25
2023-03-19T09:07:03.337Z,99816.75
2023-03-19T09:09:30.241Z,99821.28
2023-03-19T09:11:56.859Z,99817.78
2023-03-19T09:14:23.415Z,99820.78
2023-03-19T09:16:49.904Z,99812.91
2023-03-19T09:19:17.373Z,99826.75
2023-03-19T09:21:44.971Z,99825.03
2023-03-19T09:24:11.546Z,99820.72
2023-03-19T09:26:38.080Z,99822.63
2023-03-19T09:29:05.023Z,99825.53
2023-03-19T09:31:31.745Z,99826.72
2023-03-19T09:33:58.465Z,99824.72
2023-03-19T09:36:25.550Z,99828.75
2023-03-19T09:38:52.468Z,99833.69
2023-03-19T09:41:31.447Z,99830.34
2023-03-19T09:44:10.683Z,99818.03
2023-03-19T09:46:46.242Z,99810.50
2023-03-19T09:49:34.289Z,99808.97
2023-03-19T09:52:22.397Z,99819.75
2023-03-19T09:54:52.661Z,99808.03
2023-03-19T09:57:19.845Z,99821.00
2023-03-19T09:59:47.729Z,99802.91
2023-03-19T10:02:29.463Z,99794.84
2023-03-19T10:05:26.677Z,99806.94
2023-03-19T10:08:11.882Z,99798.75
2023-03-19T10:10:49.541Z,99801.19
2023-03-19T10:13:39.616Z,99802.06
2023-03-19T10:16:12.782Z,99804.88
2023-03-19T10:18:45.898Z,99803.78
2023-03-19T10:21:34.275Z,99793.19
2023-03-19T10:24:12.551Z,99790.09
2023-03-19T10:26:39.018Z,99791.38
2023-03-19T10:29:15.827Z,99792.09
2023-03-19T10:32:05.701Z,99787.56
2023-03-19T10:34:36.388Z,99798.00
2023-03-19T10:37:15.278Z,99796.09
2023-03-19T10:39:44.319Z,99794.47
2023-03-19T10:42:36.350Z,99795.88
2023-03-19T10:45:11.303Z,99796.78
2023-03-19T10:47:40.424Z,99791.84
2023-03-19T10:50:10.658Z,99803.31
2023-03-19T10:52:38.018Z,99796.09
2023-03-19T10:55:33.687Z,99803.84
2023-03-19T10:58:16.278Z,99796.03
2023-03-19T11:00:46.687Z,99791.72
2023-03-19T11:03:32.436Z,99785.84
2023-03-19T11:06:33.042Z,99788.25
2023-03-19T11:09:08.666Z,99787.41
2023-03-19T11:11:45.128Z,99792.13
2023-03-19T11:14:18.576Z,99800.75
2023-03-19T11:16:51.138Z,99790.97
2023-03-19T11:19:41.462Z,99792.28
2023-03-19T11:22:19.627Z,99790.47
2023-03-19T11:24:53.670Z,99789.22
2023-03-19T11:27:29.700Z,99784.88
2023-03-19T11:29:56.281Z,99785.72
2023-03-19T11:32:59.887Z,99775.91
2023-03-19T11:35:38.044Z,99780.88
2023-03-19T11:38:14.306Z,99773.00
2023-03-19T11:40:47.815Z,99780.25
2023-03-19T11:43:29.586Z,99775.06
2023-03-19T11:46:18.341Z,99777.06
2023-03-19T11:48:50.882Z,99777.84
2023-03-19T11:51:38.855Z,99779.66
2023-03-19T11:54:28.408Z,99774.91
2023-03-19T11:57:00.119Z,99772.94
2023-03-19T11:59:30.318Z,99765.22
2023-03-19T12:02:16.797Z,99776.38
2023-03-19T12:05:10.041Z,99763.97
2023-03-19T12:08:08.093Z,99763.41
2023-03-19T12:10:43.714Z,99756.75
2023-03-19T12:13:37.679Z,99770.28
2023-03-19T12:16:13.746Z,99759.31
2023-03-19T12:18:49.256Z,99758.59
2023-03-19T12:21:28.008Z,99757.63
2023-03-19T12:24:19.837Z,99760.31
2023-03-19T12:27:09.736Z,99759.38
2023-03-19T12:29:56.969Z,99758.00
2023-03-19T12:32:58.108Z,99761.25
2023-03-19T12:35:31.837Z,99763.34
2023-03-19T12:38:07.152Z,99764.06
2023-03-19T12:40:58.420Z,99760.41
2023-03-19T12:43:49.429Z,99751.53
2023-03-19T12:46:32.172Z,99745.03
2023-03-19T12:49:19.786Z,99748.88
2023-03-19T12:51:57.109Z,99750.94
2023-03-19T12:54:39.386Z,99745.78
2023-03-19T12:57:23.494Z,99750.31
2023-03-19T13:00:08.204Z,99747.00
2023-03-19T13:02:40.987Z,99748.09
2023-03-19T13:05:27.037Z,99756.34
2023-03-19T13:08:02.314Z,99756.72
2023-03-19T13:10:29.720Z,99751.34
2023-03-19T13:12:57.052Z,99752.41
2023-03-19T13:15:28.725Z,99751.03
2023-03-19T13:18:17.081Z,99757.47
2023-03-19T13:20:56.922Z,99757.63
2023-03-19T13:23:35.051Z,99760.13
2023-03-19T13:26:04.748Z,99751.53
2023-03-19T13:28:35.009Z,99753.56
2023-03-19T13:31:06.694Z,99753.78
2023-03-19T13:33:38.719Z,99760.53
2023-03-19T13:36:07.746Z,99759.34
2023-03-19T13:38:40.037Z,99753.69
2023-03-19T13:41:32.314Z,99758.97
2023-03-19T13:44:00.006Z,99746.94
2023-03-19T13:46:31.095Z,99749.34
2023-03-19T13:49:25.382Z,99746.47
2023-03-19T13:51:54.993Z,99746.22
2023-03-19T13:54:32.706Z,99748.19
2023-03-19T13:57:01.279Z,99749.00
2023-03-19T13:59:29.836Z,99749.03
2023-03-19T14:01:57.082Z,99747.03
2023-03-19T14:04:30.681Z,99750.63
2023-03-19T14:07:15.583Z,99750.66
2023-03-19T14:09:43.423Z,99745.41
2023-03-19T14:12:16.241Z,99746.63
2023-03-19T14:14:49.047Z,99743.00
2023-03-19T14:17:25.759Z,99739.75
2023-03-19T14:19:54.276Z,99752.25
2023-03-19T14:22:32.771Z,99745.81
2023-03-19T14:25:17.948Z,99743.41
2023-03-19T14:27:48.356Z,99750.63
2023-03-19T14:30:25.512Z,99755.88
2023-03-19T14:32:52.276Z,99745.81
2023-03-19T14:35:22.694Z,99746.22
2023-03-19T14:37:51.042Z,99753.88
2023-03-19T14:40:20.997Z,99750.28
2023-03-19T14:43:25.372Z,99747.88
2023-03-19T14:46:01.567Z,99752.28
2023-03-19T14:49:16.180Z,99756.28
2023-03-19T14:51:54.772Z,99747.44
2023-03-19T14:54:30.665Z,99746.66
2023-03-19T14:56:57.687Z,99747.06
2023-03-19T14:59:24.637Z,99756.34
2023-03-19T15:01:54.213Z,99754.28
2023-03-19T15:04:23.191Z,99755.47
2023-03-19T15:06:54.424Z,99762.34
2023-03-19T15:09:32.476Z,99755.13
2023-03-19T15:12:20.224Z,99751.91
2023-03-19T15:15:09.677Z,99759.94
2023-03-19T15:17:39.302Z,99759.53
2023-03-19T15:20:22.593Z,99759.53
2023-03-19T15:23:01.218Z,99761.94
2023-03-19T15:25:28.438Z,99757.94
2023-03-19T15:28:09.193Z,99754.31
2023-03-19T15:30:50.449Z,99757.53
2023-03-19T15:33:38.806Z,99754.72
2023-03-19T15:36:09.139Z,99767.97
2023-03-19T15:38:40.864Z,99763.53
2023-03-19T15:41:08.799Z,99761.94
2023-03-19T15:43:38.150Z,99767.56
2023-03-19T15:46:05.744Z,99762.31
2023-03-19T15:48:42.124Z,99781.94
2023-03-19T15:51:10.061Z,99773.44
2023-03-19T15:53:37.447Z,99777.84
2023-03-19T15:56:04.944Z,99784.66
2023-03-19T15:58:36.373Z,99780.53
2023-03-19T16:01:07.097Z,99776.44
2023-03-19T16:03:42.250Z,99792.06
2023-03-19T16:06:21.332Z,99789.25
2023-03-19T16:08:53.420Z,99797.66
2023-03-19T16:11:28.377Z,99798.88
2023-03-19T16:14:00.096Z,99803.16
2023-03-19T16:16:29.800Z,99799.47
2023-03-19T16:18:57.638Z,99803.41
2023-03-19T16:21:41.290Z,99803.84
2023-03-19T16:24:27.503Z,99806.59
2023-03-19T16:26:54.159Z,99812.59
2023-03-19T16:29:24.623Z,99810.84
2023-03-19T16:31:59.777Z,99813.63
2023-03-19T16:34:36.537Z,99820.38
2023-03-19T16:37:24.963Z,99825.00
2023-03-19T16:39:56.920Z,99827.72
2023-03-19T16:42:38.422Z,99820.78
2023-03-19T16:45:18.183Z,99834.00
2023-03-19T16:48:05.276Z,99836.94
2023-03-19T16:50:40.035Z,99838.09
2023-03-19T16:53:21.639Z,99841.16
2023-03-19T16:55:48.481Z,99840.69
2023-03-19T16:58:16.883Z,99848.09
2023-03-19T17:00:44.361Z,99852.53
2023-03-19T17:03:13.140Z,99852.03
2023-03-19T17:05:39.689Z,99861.47
2023-03-19T17:08:06.105Z,99857.44
2023-03-19T17:10:33.464Z,99864.69
2023-03-19T17:13:00.594Z,99872.66
2023-03-19T17:15:39.190Z,99863.84
2023-03-19T17:18:23.470Z,99866.59
2023-03-19T17:20:56.761Z,99865.63
2023-03-19T17:23:26.830Z,99862.72
2023-03-19T17:25:54.120Z,99873.47
2023-03-19T17:28:20.654Z,99873.72
2023-03-19T17:30:47.356Z,99864.53
2023-03-19T17:33:24.293Z,99871.88
2023-03-19T17:35:51.988Z,99872.19
2023-03-19T17:38:19.597Z,99872.78
2023-03-19T17:40:47.047Z,99880.19
2023-03-19T17:43:14.952Z,99881.91
2023-03-19T17:45:45.876Z,99881.38
2023-03-19T17:48:19.934Z,99881.63
2023-03-19T17:50:46.438Z,99882.38
2023-03-19T17:53:14.488Z,99877.59
2023-03-19T17:55:41.041Z,99882.56
2023-03-19T17:58:15.735Z,99883.06
2023-03-19T18:00:42.401Z,99885.66
2023-03-19T18:03:13.055Z,99882.56
2023-03-19T18:05:40.257Z,99878.03
2023-03-19T18:08:07.128Z,99877.53
2023-03-19T18:10:34.657Z,99881.88
2023-03-19T18:13:01.725Z,99883.72
2023-03-19T18:15:29.749Z,99890.03
2023-03-19T18:17:58.200Z,99885.19
2023-03-19T18:20:27.355Z,99892.63
2023-03-19T18:22:53.901Z,99896.56
2023-03-19T18:25:23.778Z,99898.03
2023-03-19T18:27:50.798Z,99887.06
2023-03-19T18:30:19.429Z,99894.28
2023-03-19T18:32:49.777Z,99899.69
2023-03-19T18:35:22.914Z,99906.03
2023-03-19T18:37:51.463Z,99900.50
2023-03-19T18:40:21.205Z,99898.91
2023-03-19T18:42:48.227Z,99899.19
2023-03-19T18:45:17.242Z,99903.22
2023-03-19T18:47:45.047Z,99896.41
2023-03-19T18:50:16.740Z,99900.81
2023-03-19T18:52:45.293Z,99901.66
2023-03-19T18:55:12.843Z,99900.47
2023-03-19T18:57:53.452Z,99898.31
2023-03-19T19:00:23.969Z,99892.34
2023-03-19T19:02:51.107Z,99895.75
2023-03-19T19:05:19.417Z,99894.78
2023-03-19T19:07:46.150Z,99897.22
2023-03-19T19:10:12.797Z,99898.09
2023-03-19T19:12:44.350Z,99908.09
2023-03-19T19:15:25.888Z,99912.13
2023-03-19T19:17:53.144Z,99913.81
2023-03-19T19:20:22.131Z,99913.44
2023-03-19T19:22:51.308Z,99911.75
2023-03-19T19:25:23.212Z,99924.72
2023-03-19T19:27:58.631Z,99922.94
2023-03-19T19:30:25.202Z,99917.81
2023-03-19T19:32:51.734Z,99926.44
2023-03-19T19:35:27.467Z,99928.06
2023-03-19T19:37:55.412Z,99936.34
2023-03-19T19:40:27.533Z,99928.50
2023-03-19T19:42:54.193Z,99927.41
2023-03-19T19:45:32.923Z,99923.94
2023-03-19T19:48:00.038Z,99931.66
2023-03-19T19:50:27.729Z,99923.66
2023-03-19T19:52:55.522Z,99934.00
2023-03-19T19:55:24.295Z,99929.31
2023-03-19T19:57:51.380Z,99935.09
2023-03-19T20:00:23.766Z,99936.44
2023-03-19T20:02:50.899Z,99938.56
2023-03-19T20:05:25.886Z,99940.09
2023-03-19T20:07:54.100Z,99947.75
2023-03-19T20:10:21.683Z,99939.72
2023-03-19T20:12:51.321Z,99937.16
2023-03-19T20:15:23.634Z,99936.50
2023-03-19T20:17:51.840Z,99942.88
2023-03-19T20:20:24.820Z,99937.06
2023-03-19T20:22:51.694Z,99942.63
2023-03-19T20:25:19.810Z,99941.06
2023-03-19T20:27:47.122Z,99942.88
2023-03-19T20:30:38.676Z,99944.94
2023-03-19T20:33:06.142Z,99946.13
2023-03-19T20:35:35.647Z,99944.22
2023-03-19T20:38:04.735Z,99943.78
2023-03-19T20:40:38.116Z,99939.38
2023-03-19T20:43:05.842Z,99945.66
2023-03-19T20:45:37.700Z,99949.25
2023-03-19T20:48:05.110Z,99950.78
2023-03-19T20:50:33.127Z,99943.94
2023-03-19T20:53:03.558Z,99945.47
2023-03-19T20:55:32.372Z,99950.16
2023-03-19T20:57:59.894Z,99945.75
2023-03-19T21:00:31.943Z,99951.13
2023-03-19T21:02:59.838Z,99948.38
2023-03-19T21:05:34.919Z,99943.31
2023-03-19T21:08:03.339Z,99940.34
2023-03-19T21:10:42.308Z,99949.16
2023-03-19T21:13:13.348Z,99947.78
2023-03-19T21:15:40.310Z,99942.72
2023-03-19T21:18:07.329Z,99947.38
2023-03-19T21:20:34.466Z,99943.44
2023-03-19T21:23:14.526Z,99941.25
2023-03-19T21:25:41.214Z,99938.25
2023-03-19T21:28:17.510Z,99948.56
2023-03-19T21:30:45.860Z,99945.47
2023-03-19T21:33:28.388Z,99936.31
2023-03-19T21:35:56.358Z,99938.75
2023-03-19T21:38:23.431Z,99936.06
2023-03-19T21:40:57.909Z,99942.59
2023-03-19T21:43:33.916Z,99939.13
2023-03-19T21:46:13.772Z,99931.84
2023-03-19T21:48:44.098Z,99940.75
2023-03-19T21:51:16.936Z,99952.47
2023-03-19T21:53:45.602Z,99947.94
2023-03-19T21:56:33.402Z,99950.28
2023-03-19T21:59:02.153Z,99950.63
2023-03-19T22:01:28.581Z,99941.94
2023-03-19T22:03:57.602Z,99942.84
2023-03-19T22:06:25.113Z,99949.13
2023-03-19T22:08:53.837Z,99953.50
2023-03-19T22:11:27.099Z,99947.47
2023-03-19T22:13:54.614Z,99954.41
2023-03-19T22:16:23.924Z,99949.78
2023-03-19T22:18:52.220Z,99961.59
2023-03-19T22:21:21.535Z,99951.88
2023-03-19T22:23:48.894Z,99951.28
2023-03-19T22:26:36.834Z,99951.88
2023-03-19T22:29:25.355Z,99959.41
2023-03-19T22:31:52.981Z,99955.22
2023-03-19T22:34:22.500Z,99958.34
2023-03-19T22:36:49.337Z,99956.50
2023-03-19T22:39:15.979Z,99955.56
2023-03-19T22:41:45.494Z,99962.63
2023-03-19T22:44:19.284Z,99956.31
2023-03-19T22:46:46.322Z,99961.88
2023-03-19T22:49:13.825Z,99957.00
2023-03-19T22:51:40.305Z,99957.94
2023-03-19T22:54:07.001Z,99957.22
2023-03-19T22:56:33.481Z,99960.25
2023-03-19T22:59:00.011Z,99949.13
2023-03-19T23:01:30.955Z,99954.69
2023-03-19T23:03:57.962Z,99949.94
2023-03-19T23:06:30.711Z,99957.59
2023-03-19T23:08:57.770Z,99946.09
2023-03-19T23:11:24.450Z,99951.09
2023-03-19T23:13:51.031Z,99943.31
2023-03-19T23:16:22.338Z,99942.63
2023-03-19T23:18:49.765Z,99947.47
2023-03-19T23:21:17.930Z,99936.94
2023-03-19T23:23:44.955Z,99942.03
2023-03-19T23:26:37.915Z,99938.41
2023-03-19T23:29:06.091Z,99938.09
2023-03-19T23:31:34.356Z,99942.16
2023-03-19T23:34:00.899Z,99935.19
2023-03-19T23:36:27.753Z,99943.53
2023-03-19T23:38:54.597Z,99946.44
2023-03-19T23:41:26.095Z,99941.94
2023-03-19T23:43:52.989Z,99935.78
2023-03-19T23:46:20.703Z,99942.72
2023-03-19T23:48:47.614Z,99944.69
2023-03-19T23:51:15.359Z,99942.16
2023-03-19T23:53:42.892Z,99954.91
2023-03-19T23:56:23.895Z,99956.31
2023-03-19T23:58:51.540Z,99950.28
